sensor_id;sensor_type;location;lat;lon;timestamp;temperature;humidity
4874;DHT22;2451;49.970;9.068;2024-03-22T00:01:45;8.70;99.90
4874;DHT22;2451;49.970;9.068;2024-03-22T00:04:12;8.70;99.90
4874;DHT22;2451;49.970;9.068;2024-03-22T00:06:38;8.70;99.90
4874;DHT22;2451;49.970;9.068;2024-03-22T00:09:03;8.70;99.90
4874;DHT22;2451;49.970;9.068;2024-03-22T00:11:29;8.70;99.90
4874;DHT22;2451;49.970;9.068;2024-03-22T00:13:54;8.60;99.90
4874;DHT22;2451;49.970;9.068;2024-03-22T00:16:20;8.60;99.90
4874;DHT22;2451;49.970;9.068;2024-03-22T00:18:45;8.60;99.90
4874;DHT22;2451;49.970;9.068;2024-03-22T00:21:11;8.50;99.90
4874;DHT22;2451;49.970;9.068;2024-03-22T00:23:36;8.50;99.90
4874;DHT22;2451;49.970;9.068;2024-03-22T00:26:02;8.50;99.90
4874;DHT22;2451;49.970;9.068;2024-03-22T00:28:27;8.50;99.90
4874;DHT22;2451;49.970;9.068;2024-03-22T00:30:53;8.50;99.90
4874;DHT22;2451;49.970;9.068;2024-03-22T00:33:18;8.60;99.90
4874;DHT22;2451;49.970;9.068;2024-03-22T00:35:44;8.50;99.90
4874;DHT22;2451;49.970;9.068;2024-03-22T00:38:09;8.50;99.90
4874;DHT22;2451;49.970;9.068;2024-03-22T00:40:35;8.50;99.90
4874;DHT22;2451;49.970;9.068;2024-03-22T00:43:00;8.40;99.90
4874;DHT22;2451;49.970;9.068;2024-03-22T00:45:26;8.40;99.90
4874;DHT22;2451;49.970;9.068;2024-03-22T00:47:51;8.40;99.90
4874;DHT22;2451;49.970;9.068;2024-03-22T00:50:17;8.40;99.90
4874;DHT22;2451;49.970;9.068;2024-03-22T00:52:42;8.40;99.90
4874;DHT22;2451;49.970;9.068;2024-03-22T00:55:08;8.30;99.90
4874;DHT22;2451;49.970;9.068;2024-03-22T00:57:33;8.30;99.90
4874;DHT22;2451;49.970;9.068;2024-03-22T00:59:59;8.20;99.90
4874;DHT22;2451;49.970;9.068;2024-03-22T01:02:24;8.20;99.90
4874;DHT22;2451;49.970;9.068;2024-03-22T01:04:50;8.10;99.90
4874;DHT22;2451;49.970;9.068;2024-03-22T01:07:15;8.00;99.90
4874;DHT22;2451;49.970;9.068;2024-03-22T01:09:41;7.90;99.90
4874;DHT22;2451;49.970;9.068;2024-03-22T01:12:09;7.90;99.90
4874;DHT22;2451;49.970;9.068;2024-03-22T01:14:35;7.80;99.90
4874;DHT22;2451;49.970;9.068;2024-03-22T01:17:01;7.80;99.90
4874;DHT22;2451;49.970;9.068;2024-03-22T01:19:26;7.80;99.90
4874;DHT22;2451;49.970;9.068;2024-03-22T01:21:52;7.80;99.90
4874;DHT22;2451;49.970;9.068;2024-03-22T01:24:17;7.80;99.90
4874;DHT22;2451;49.970;9.068;2024-03-22T01:26:43;7.80;99.90
4874;DHT22;2451;49.970;9.068;2024-03-22T01:29:08;7.80;99.90
4874;DHT22;2451;49.970;9.068;2024-03-22T01:31:34;7.80;99.90
4874;DHT22;2451;49.970;9.068;2024-03-22T01:33:59;7.70;99.90
4874;DHT22;2451;49.970;9.068;2024-03-22T01:36:25;7.70;99.90
4874;DHT22;2451;49.970;9.068;2024-03-22T01:38:50;7.60;99.90
4874;DHT22;2451;49.970;9.068;2024-03-22T01:41:16;7.60;99.90
4874;DHT22;2451;49.970;9.068;2024-03-22T01:43:43;7.50;99.90
4874;DHT22;2451;49.970;9.068;2024-03-22T01:46:08;7.50;99.90
4874;DHT22;2451;49.970;9.068;2024-03-22T01:48:34;7.50;99.90
4874;DHT22;2451;49.970;9.068;2024-03-22T01:51:01;7.50;99.90
4874;DHT22;2451;49.970;9.068;2024-03-22T01:53:27;7.40;99.90
4874;DHT22;2451;49.970;9.068;2024-03-22T01:55:52;7.40;99.90
4874;DHT22;2451;49.970;9.068;2024-03-22T01:58:18;7.40;99.90
4874;DHT22;2451;49.970;9.068;2024-03-22T02:00:44;7.50;99.90
4874;DHT22;2451;49.970;9.068;2024-03-22T02:03:09;7.50;99.90
4874;DHT22;2451;49.970;9.068;2024-03-22T02:05:35;7.50;99.90
4874;DHT22;2451;49.970;9.068;2024-03-22T02:08:00;7.40;99.90
4874;DHT22;2451;49.970;9.068;2024-03-22T02:10:26;7.40;99.90
4874;DHT22;2451;49.970;9.068;2024-03-22T02:12:52;7.40;99.90
4874;DHT22;2451;49.970;9.068;2024-03-22T02:15:17;7.40;99.90
4874;DHT22;2451;49.970;9.068;2024-03-22T02:17:43;7.30;99.90
4874;DHT22;2451;49.970;9.068;2024-03-22T02:20:09;7.30;99.90
4874;DHT22;2451;49.970;9.068;2024-03-22T02:22:35;7.30;99.90
4874;DHT22;2451;49.970;9.068;2024-03-22T02:25:01;7.30;99.90
4874;DHT22;2451;49.970;9.068;2024-03-22T02:27:26;7.30;99.90
4874;DHT22;2451;49.970;9.068;2024-03-22T02:29:52;7.20;99.90
4874;DHT22;2451;49.970;9.068;2024-03-22T02:32:17;7.20;99.90
4874;DHT22;2451;49.970;9.068;2024-03-22T02:34:43;7.20;99.90
4874;DHT22;2451;49.970;9.068;2024-03-22T02:37:08;7.20;99.90
4874;DHT22;2451;49.970;9.068;2024-03-22T02:39:34;7.20;99.90
4874;DHT22;2451;49.970;9.068;2024-03-22T02:41:59;7.10;99.90
4874;DHT22;2451;49.970;9.068;2024-03-22T02:44:25;7.10;99.90
4874;DHT22;2451;49.970;9.068;2024-03-22T02:46:50;7.10;99.90
4874;DHT22;2451;49.970;9.068;2024-03-22T02:49:16;7.00;99.90
4874;DHT22;2451;49.970;9.068;2024-03-22T02:51:42;7.00;99.90
4874;DHT22;2451;49.970;9.068;2024-03-22T02:54:07;7.00;99.90
4874;DHT22;2451;49.970;9.068;2024-03-22T02:56:33;7.00;99.90
4874;DHT22;2451;49.970;9.068;2024-03-22T02:58:58;6.90;99.90
4874;DHT22;2451;49.970;9.068;2024-03-22T03:01:24;6.90;99.90
4874;DHT22;2451;49.970;9.068;2024-03-22T03:03:49;6.90;99.90
4874;DHT22;2451;49.970;9.068;2024-03-22T03:06:15;6.90;99.90
4874;DHT22;2451;49.970;9.068;2024-03-22T03:08:42;6.80;99.90
4874;DHT22;2451;49.970;9.068;2024-03-22T03:11:08;6.80;99.90
4874;DHT22;2451;49.970;9.068;2024-03-22T03:13:33;6.80;99.90
4874;DHT22;2451;49.970;9.068;2024-03-22T03:15:59;6.80;99.90
4874;DHT22;2451;49.970;9.068;2024-03-22T03:18:24;6.70;99.90
4874;DHT22;2451;49.970;9.068;2024-03-22T03:20:50;6.70;99.90
4874;DHT22;2451;49.970;9.068;2024-03-22T03:23:15;6.70;99.90
4874;DHT22;2451;49.970;9.068;2024-03-22T03:25:41;6.70;99.90
4874;DHT22;2451;49.970;9.068;2024-03-22T03:28:06;6.70;99.90
4874;DHT22;2451;49.970;9.068;2024-03-22T03:30:34;6.60;99.90
4874;DHT22;2451;49.970;9.068;2024-03-22T03:32:59;6.60;99.90
4874;DHT22;2451;49.970;9.068;2024-03-22T03:35:25;6.60;99.90
4874;DHT22;2451;49.970;9.068;2024-03-22T03:37:51;6.60;99.90
4874;DHT22;2451;49.970;9.068;2024-03-22T03:40:16;6.50;99.90
4874;DHT22;2451;49.970;9.068;2024-03-22T03:42:42;6.40;99.90
4874;DHT22;2451;49.970;9.068;2024-03-22T03:45:07;6.40;99.90
4874;DHT22;2451;49.970;9.068;2024-03-22T03:47:33;6.40;99.90
4874;DHT22;2451;49.970;9.068;2024-03-22T03:49:59;6.40;99.90
4874;DHT22;2451;49.970;9.068;2024-03-22T03:52:25;6.40;99.90
4874;DHT22;2451;49.970;9.068;2024-03-22T03:54:50;6.40;99.90
4874;DHT22;2451;49.970;9.068;2024-03-22T03:57:16;6.40;99.90
4874;DHT22;2451;49.970;9.068;2024-03-22T03:59:41;6.40;99.90
4874;DHT22;2451;49.970;9.068;2024-03-22T04:02:07;6.40;99.90
4874;DHT22;2451;49.970;9.068;2024-03-22T04:04:32;6.30;99.90
4874;DHT22;2451;49.970;9.068;2024-03-22T04:06:58;6.30;99.90
4874;DHT22;2451;49.970;9.068;2024-03-22T04:09:23;6.30;99.90
4874;DHT22;2451;49.970;9.068;2024-03-22T04:11:49;6.20;99.90
4874;DHT22;2451;49.970;9.068;2024-03-22T04:14:14;6.20;99.90
4874;DHT22;2451;49.970;9.068;2024-03-22T04:16:40;6.20;99.90
4874;DHT22;2451;49.970;9.068;2024-03-22T04:19:06;6.20;99.90
4874;DHT22;2451;49.970;9.068;2024-03-22T04:21:31;6.20;99.90
4874;DHT22;2451;49.970;9.068;2024-03-22T04:23:57;6.20;99.90
4874;DHT22;2451;49.970;9.068;2024-03-22T04:26:22;6.10;99.90
4874;DHT22;2451;49.970;9.068;2024-03-22T04:28:48;6.10;99.90
4874;DHT22;2451;49.970;9.068;2024-03-22T04:31:14;6.10;99.90
4874;DHT22;2451;49.970;9.068;2024-03-22T04:33:39;6.10;99.90
4874;DHT22;2451;49.970;9.068;2024-03-22T04:36:05;6.10;99.90
4874;DHT22;2451;49.970;9.068;2024-03-22T04:38:31;6.10;99.90
4874;DHT22;2451;49.970;9.068;2024-03-22T04:40:57;6.20;99.90
4874;DHT22;2451;49.970;9.068;2024-03-22T04:43:23;6.10;99.90
4874;DHT22;2451;49.970;9.068;2024-03-22T04:45:49;6.10;99.90
4874;DHT22;2451;49.970;9.068;2024-03-22T04:48:23;6.10;99.90
4874;DHT22;2451;49.970;9.068;2024-03-22T04:50:49;6.10;99.90
4874;DHT22;2451;49.970;9.068;2024-03-22T04:53:19;6.20;99.90
4874;DHT22;2451;49.970;9.068;2024-03-22T04:55:48;6.20;99.90
4874;DHT22;2451;49.970;9.068;2024-03-22T04:58:15;6.20;99.90
4874;DHT22;2451;49.970;9.068;2024-03-22T05:00:42;6.20;99.90
4874;DHT22;2451;49.970;9.068;2024-03-22T05:03:08;6.20;99.90
4874;DHT22;2451;49.970;9.068;2024-03-22T05:05:34;6.30;99.90
4874;DHT22;2451;49.970;9.068;2024-03-22T05:08:00;6.30;99.90
4874;DHT22;2451;49.970;9.068;2024-03-22T05:10:26;6.30;99.90
4874;DHT22;2451;49.970;9.068;2024-03-22T05:12:51;6.30;99.90
4874;DHT22;2451;49.970;9.068;2024-03-22T05:15:17;6.30;99.90
4874;DHT22;2451;49.970;9.068;2024-03-22T05:17:42;6.30;99.90
4874;DHT22;2451;49.970;9.068;2024-03-22T05:20:09;6.30;99.90
4874;DHT22;2451;49.970;9.068;2024-03-22T05:22:37;6.30;99.90
4874;DHT22;2451;49.970;9.068;2024-03-22T05:25:03;6.40;99.90
4874;DHT22;2451;49.970;9.068;2024-03-22T05:27:31;6.30;99.90
4874;DHT22;2451;49.970;9.068;2024-03-22T05:29:56;6.40;99.90
4874;DHT22;2451;49.970;9.068;2024-03-22T05:32:22;6.40;99.90
4874;DHT22;2451;49.970;9.068;2024-03-22T05:34:47;6.30;99.90
4874;DHT22;2451;49.970;9.068;2024-03-22T05:37:13;6.40;99.90
4874;DHT22;2451;49.970;9.068;2024-03-22T05:39:38;6.40;99.90
4874;DHT22;2451;49.970;9.068;2024-03-22T05:42:05;6.40;99.90
4874;DHT22;2451;49.970;9.068;2024-03-22T05:44:31;6.40;99.90
4874;DHT22;2451;49.970;9.068;2024-03-22T05:46:57;6.40;99.90
4874;DHT22;2451;49.970;9.068;2024-03-22T05:49:23;6.40;99.90
4874;DHT22;2451;49.970;9.068;2024-03-22T05:51:48;6.40;99.90
4874;DHT22;2451;49.970;9.068;2024-03-22T05:54:14;6.50;99.90
4874;DHT22;2451;49.970;9.068;2024-03-22T05:56:39;6.50;99.90
4874;DHT22;2451;49.970;9.068;2024-03-22T05:59:05;6.60;99.90
4874;DHT22;2451;49.970;9.068;2024-03-22T06:01:32;6.70;99.90
4874;DHT22;2451;49.970;9.068;2024-03-22T06:03:57;6.70;99.90
4874;DHT22;2451;49.970;9.068;2024-03-22T06:06:23;6.70;99.90
4874;DHT22;2451;49.970;9.068;2024-03-22T06:08:54;6.80;99.90
4874;DHT22;2451;49.970;9.068;2024-03-22T06:11:20;6.90;99.90
4874;DHT22;2451;49.970;9.068;2024-03-22T06:13:49;6.90;99.90
4874;DHT22;2451;49.970;9.068;2024-03-22T06:16:14;6.90;99.90
4874;DHT22;2451;49.970;9.068;2024-03-22T06:18:40;7.00;99.90
4874;DHT22;2451;49.970;9.068;2024-03-22T06:21:06;7.00;99.90
4874;DHT22;2451;49.970;9.068;2024-03-22T06:23:32;7.10;99.90
4874;DHT22;2451;49.970;9.068;2024-03-22T06:25:58;7.20;99.90
4874;DHT22;2451;49.970;9.068;2024-03-22T06:28:25;7.40;99.90
4874;DHT22;2451;49.970;9.068;2024-03-22T06:30:50;7.50;99.90
4874;DHT22;2451;49.970;9.068;2024-03-22T06:33:16;7.60;99.90
4874;DHT22;2451;49.970;9.068;2024-03-22T06:35:41;7.80;99.90
4874;DHT22;2451;49.970;9.068;2024-03-22T06:38:07;8.00;99.90
4874;DHT22;2451;49.970;9.068;2024-03-22T06:40:33;8.10;99.90
4874;DHT22;2451;49.970;9.068;2024-03-22T06:42:59;8.20;99.90
4874;DHT22;2451;49.970;9.068;2024-03-22T06:45:24;8.40;99.90
4874;DHT22;2451;49.970;9.068;2024-03-22T06:47:50;8.60;99.90
4874;DHT22;2451;49.970;9.068;2024-03-22T06:50:16;8.90;99.90
4874;DHT22;2451;49.970;9.068;2024-03-22T06:52:52;9.30;99.90
4874;DHT22;2451;49.970;9.068;2024-03-22T06:55:22;9.70;99.90
4874;DHT22;2451;49.970;9.068;2024-03-22T06:57:49;10.10;99.90
4874;DHT22;2451;49.970;9.068;2024-03-22T07:00:15;10.40;99.90
4874;DHT22;2451;49.970;9.068;2024-03-22T07:02:41;10.70;99.90
4874;DHT22;2451;49.970;9.068;2024-03-22T07:05:07;10.90;99.90
4874;DHT22;2451;49.970;9.068;2024-03-22T07:07:34;11.30;99.90
4874;DHT22;2451;49.970;9.068;2024-03-22T07:10:00;11.60;99.90
4874;DHT22;2451;49.970;9.068;2024-03-22T07:12:25;11.80;99.90
4874;DHT22;2451;49.970;9.068;2024-03-22T07:14:51;12.00;99.90
4874;DHT22;2451;49.970;9.068;2024-03-22T07:17:16;12.30;99.90
4874;DHT22;2451;49.970;9.068;2024-03-22T07:19:42;12.50;99.90
4874;DHT22;2451;49.970;9.068;2024-03-22T07:22:08;12.60;99.90
4874;DHT22;2451;49.970;9.068;2024-03-22T07:24:33;12.60;99.90
4874;DHT22;2451;49.970;9.068;2024-03-22T07:26:59;12.50;99.90
4874;DHT22;2451;49.970;9.068;2024-03-22T07:29:24;12.40;99.90
4874;DHT22;2451;49.970;9.068;2024-03-22T07:31:50;12.30;99.90
4874;DHT22;2451;49.970;9.068;2024-03-22T07:34:15;12.10;99.90
4874;DHT22;2451;49.970;9.068;2024-03-22T07:36:41;11.90;99.90
4874;DHT22;2451;49.970;9.068;2024-03-22T07:39:07;11.80;99.90
4874;DHT22;2451;49.970;9.068;2024-03-22T07:41:33;11.60;99.90
4874;DHT22;2451;49.970;9.068;2024-03-22T07:43:59;11.60;99.90
4874;DHT22;2451;49.970;9.068;2024-03-22T07:46:25;11.50;99.90
4874;DHT22;2451;49.970;9.068;2024-03-22T07:48:51;11.50;99.90
4874;DHT22;2451;49.970;9.068;2024-03-22T07:51:17;11.50;99.90
4874;DHT22;2451;49.970;9.068;2024-03-22T07:53:42;11.40;99.90
4874;DHT22;2451;49.970;9.068;2024-03-22T07:56:08;11.40;99.90
4874;DHT22;2451;49.970;9.068;2024-03-22T07:58:33;11.40;99.90
4874;DHT22;2451;49.970;9.068;2024-03-22T08:00:59;11.40;99.90
4874;DHT22;2451;49.970;9.068;2024-03-22T08:03:24;11.40;99.90
4874;DHT22;2451;49.970;9.068;2024-03-22T08:05:50;11.40;99.90
4874;DHT22;2451;49.970;9.068;2024-03-22T08:08:15;11.40;99.90
4874;DHT22;2451;49.970;9.068;2024-03-22T08:10:41;11.40;99.90
4874;DHT22;2451;49.970;9.068;2024-03-22T08:13:07;11.40;99.90
4874;DHT22;2451;49.970;9.068;2024-03-22T08:15:32;11.40;99.90
4874;DHT22;2451;49.970;9.068;2024-03-22T08:17:58;11.40;99.90
4874;DHT22;2451;49.970;9.068;2024-03-22T08:20:24;11.40;99.90
4874;DHT22;2451;49.970;9.068;2024-03-22T08:22:50;11.40;99.90
4874;DHT22;2451;49.970;9.068;2024-03-22T08:25:15;11.40;99.90
4874;DHT22;2451;49.970;9.068;2024-03-22T08:27:43;11.40;99.90
4874;DHT22;2451;49.970;9.068;2024-03-22T08:30:10;11.40;99.90
4874;DHT22;2451;49.970;9.068;2024-03-22T08:32:35;11.40;99.90
4874;DHT22;2451;49.970;9.068;2024-03-22T08:35:01;11.40;99.90
4874;DHT22;2451;49.970;9.068;2024-03-22T08:37:26;11.50;99.90
4874;DHT22;2451;49.970;9.068;2024-03-22T08:39:52;11.50;99.90
4874;DHT22;2451;49.970;9.068;2024-03-22T08:42:18;11.50;99.90
4874;DHT22;2451;49.970;9.068;2024-03-22T08:44:44;11.50;99.90
4874;DHT22;2451;49.970;9.068;2024-03-22T08:47:09;11.50;99.90
4874;DHT22;2451;49.970;9.068;2024-03-22T08:49:35;11.50;99.90
4874;DHT22;2451;49.970;9.068;2024-03-22T08:52:01;11.50;99.90
4874;DHT22;2451;49.970;9.068;2024-03-22T08:54:27;11.50;99.90
4874;DHT22;2451;49.970;9.068;2024-03-22T08:56:53;11.50;99.90
4874;DHT22;2451;49.970;9.068;2024-03-22T08:59:19;11.50;99.90
4874;DHT22;2451;49.970;9.068;2024-03-22T09:01:44;11.50;99.90
4874;DHT22;2451;49.970;9.068;2024-03-22T09:04:10;11.50;99.90
4874;DHT22;2451;49.970;9.068;2024-03-22T09:06:35;11.50;99.90
4874;DHT22;2451;49.970;9.068;2024-03-22T09:09:01;11.50;99.90
4874;DHT22;2451;49.970;9.068;2024-03-22T09:11:26;11.60;99.90
4874;DHT22;2451;49.970;9.068;2024-03-22T09:13:53;11.60;99.90
4874;DHT22;2451;49.970;9.068;2024-03-22T09:16:20;11.60;99.90
4874;DHT22;2451;49.970;9.068;2024-03-22T09:18:45;11.70;99.90
4874;DHT22;2451;49.970;9.068;2024-03-22T09:21:11;11.70;99.90
4874;DHT22;2451;49.970;9.068;2024-03-22T09:23:36;11.80;99.90
4874;DHT22;2451;49.970;9.068;2024-03-22T09:26:02;11.90;99.90
4874;DHT22;2451;49.970;9.068;2024-03-22T09:28:27;12.00;99.90
4874;DHT22;2451;49.970;9.068;2024-03-22T09:30:53;12.10;99.90
4874;DHT22;2451;49.970;9.068;2024-03-22T09:33:18;12.20;99.90
4874;DHT22;2451;49.970;9.068;2024-03-22T09:35:44;12.30;99.90
4874;DHT22;2451;49.970;9.068;2024-03-22T09:38:10;12.40;99.90
4874;DHT22;2451;49.970;9.068;2024-03-22T09:40:38;12.50;99.90
4874;DHT22;2451;49.970;9.068;2024-03-22T09:43:04;12.60;99.90
4874;DHT22;2451;49.970;9.068;2024-03-22T09:45:32;12.70;99.90
4874;DHT22;2451;49.970;9.068;2024-03-22T09:47:58;12.80;99.90
4874;DHT22;2451;49.970;9.068;2024-03-22T09:50:24;12.90;99.90
4874;DHT22;2451;49.970;9.068;2024-03-22T09:52:52;13.20;99.90
4874;DHT22;2451;49.970;9.068;2024-03-22T09:55:23;13.40;99.90
4874;DHT22;2451;49.970;9.068;2024-03-22T09:57:49;13.60;99.90
4874;DHT22;2451;49.970;9.068;2024-03-22T10:00:19;13.70;99.90
4874;DHT22;2451;49.970;9.068;2024-03-22T10:02:47;13.80;99.90
4874;DHT22;2451;49.970;9.068;2024-03-22T10:05:13;13.90;99.90
4874;DHT22;2451;49.970;9.068;2024-03-22T10:07:39;13.90;99.90
4874;DHT22;2451;49.970;9.068;2024-03-22T10:10:05;13.90;99.90
4874;DHT22;2451;49.970;9.068;2024-03-22T10:12:32;13.90;99.90
4874;DHT22;2451;49.970;9.068;2024-03-22T10:14:58;14.00;99.90
4874;DHT22;2451;49.970;9.068;2024-03-22T10:17:26;14.10;99.90
4874;DHT22;2451;49.970;9.068;2024-03-22T10:19:52;14.20;99.90
4874;DHT22;2451;49.970;9.068;2024-03-22T10:22:18;14.30;99.90
4874;DHT22;2451;49.970;9.068;2024-03-22T10:24:44;14.40;99.90
4874;DHT22;2451;49.970;9.068;2024-03-22T10:27:09;14.50;99.90
4874;DHT22;2451;49.970;9.068;2024-03-22T10:29:38;14.50;99.90
4874;DHT22;2451;49.970;9.068;2024-03-22T10:32:04;14.60;99.90
4874;DHT22;2451;49.970;9.068;2024-03-22T10:34:30;14.70;99.90
4874;DHT22;2451;49.970;9.068;2024-03-22T10:37:00;14.70;99.90
4874;DHT22;2451;49.970;9.068;2024-03-22T10:39:26;14.80;99.90
4874;DHT22;2451;49.970;9.068;2024-03-22T10:41:52;14.80;99.90
4874;DHT22;2451;49.970;9.068;2024-03-22T10:44:18;15.00;99.90
4874;DHT22;2451;49.970;9.068;2024-03-22T10:46:45;15.10;99.90
4874;DHT22;2451;49.970;9.068;2024-03-22T10:49:21;15.40;99.90
4874;DHT22;2451;49.970;9.068;2024-03-22T10:51:51;15.60;99.90
4874;DHT22;2451;49.970;9.068;2024-03-22T10:54:21;15.90;99.90
4874;DHT22;2451;49.970;9.068;2024-03-22T10:56:49;16.10;99.90
4874;DHT22;2451;49.970;9.068;2024-03-22T10:59:19;16.30;99.90
4874;DHT22;2451;49.970;9.068;2024-03-22T11:01:49;16.40;99.90
4874;DHT22;2451;49.970;9.068;2024-03-22T11:04:17;16.50;99.90
4874;DHT22;2451;49.970;9.068;2024-03-22T11:06:49;16.50;99.90
4874;DHT22;2451;49.970;9.068;2024-03-22T11:09:21;16.60;99.90
4874;DHT22;2451;49.970;9.068;2024-03-22T11:11:48;16.70;99.90
4874;DHT22;2451;49.970;9.068;2024-03-22T11:14:13;16.70;99.90
4874;DHT22;2451;49.970;9.068;2024-03-22T11:16:45;16.80;99.90
4874;DHT22;2451;49.970;9.068;2024-03-22T11:19:10;16.90;99.90
4874;DHT22;2451;49.970;9.068;2024-03-22T11:21:37;17.00;99.90
4874;DHT22;2451;49.970;9.068;2024-03-22T11:24:04;17.10;99.90
4874;DHT22;2451;49.970;9.068;2024-03-22T11:26:30;17.10;99.90
4874;DHT22;2451;49.970;9.068;2024-03-22T11:28:55;17.30;99.90
4874;DHT22;2451;49.970;9.068;2024-03-22T11:31:22;17.50;99.90
4874;DHT22;2451;49.970;9.068;2024-03-22T11:33:53;17.70;99.90
4874;DHT22;2451;49.970;9.068;2024-03-22T11:36:18;17.90;99.90
4874;DHT22;2451;49.970;9.068;2024-03-22T11:38:44;18.10;99.90
4874;DHT22;2451;49.970;9.068;2024-03-22T11:41:10;18.10;99.90
4874;DHT22;2451;49.970;9.068;2024-03-22T11:43:36;18.40;99.90
4874;DHT22;2451;49.970;9.068;2024-03-22T11:46:02;18.60;99.90
4874;DHT22;2451;49.970;9.068;2024-03-22T11:48:28;18.80;99.90
4874;DHT22;2451;49.970;9.068;2024-03-22T11:50:53;18.90;99.90
4874;DHT22;2451;49.970;9.068;2024-03-22T11:53:21;18.90;99.90
4874;DHT22;2451;49.970;9.068;2024-03-22T11:55:49;18.80;99.90
4874;DHT22;2451;49.970;9.068;2024-03-22T11:58:14;18.60;99.90
4874;DHT22;2451;49.970;9.068;2024-03-22T12:00:42;18.60;99.90
4874;DHT22;2451;49.970;9.068;2024-03-22T12:03:07;18.50;99.90
4874;DHT22;2451;49.970;9.068;2024-03-22T12:05:34;18.50;99.90
4874;DHT22;2451;49.970;9.068;2024-03-22T12:07:59;18.40;99.90
4874;DHT22;2451;49.970;9.068;2024-03-22T12:10:25;18.40;99.90
4874;DHT22;2451;49.970;9.068;2024-03-22T12:12:50;18.40;99.90
4874;DHT22;2451;49.970;9.068;2024-03-22T12:15:16;18.30;99.90
4874;DHT22;2451;49.970;9.068;2024-03-22T12:17:41;18.20;99.90
4874;DHT22;2451;49.970;9.068;2024-03-22T12:20:09;18.10;99.90
4874;DHT22;2451;49.970;9.068;2024-03-22T12:22:35;18.10;99.90
4874;DHT22;2451;49.970;9.068;2024-03-22T12:25:01;18.10;99.90
4874;DHT22;2451;49.970;9.068;2024-03-22T12:27:27;18.10;99.90
4874;DHT22;2451;49.970;9.068;2024-03-22T12:29:52;18.00;99.90
4874;DHT22;2451;49.970;9.068;2024-03-22T12:32:18;17.90;99.90
4874;DHT22;2451;49.970;9.068;2024-03-22T12:34:43;18.00;99.90
4874;DHT22;2451;49.970;9.068;2024-03-22T12:37:09;18.00;99.90
4874;DHT22;2451;49.970;9.068;2024-03-22T12:39:35;18.10;99.90
4874;DHT22;2451;49.970;9.068;2024-03-22T12:42:00;18.10;99.90
4874;DHT22;2451;49.970;9.068;2024-03-22T12:44:26;18.40;99.90
4874;DHT22;2451;49.970;9.068;2024-03-22T12:46:52;18.50;99.90
4874;DHT22;2451;49.970;9.068;2024-03-22T12:49:19;18.70;99.90
4874;DHT22;2451;49.970;9.068;2024-03-22T12:51:45;19.20;99.90
4874;DHT22;2451;49.970;9.068;2024-03-22T12:54:10;19.80;99.90
4874;DHT22;2451;49.970;9.068;2024-03-22T12:56:37;20.10;99.90
4874;DHT22;2451;49.970;9.068;2024-03-22T12:59:04;20.60;99.90
4874;DHT22;2451;49.970;9.068;2024-03-22T13:01:30;20.90;99.90
4874;DHT22;2451;49.970;9.068;2024-03-22T13:03:56;20.70;99.90
4874;DHT22;2451;49.970;9.068;2024-03-22T13:06:22;20.60;99.90
4874;DHT22;2451;49.970;9.068;2024-03-22T13:08:48;20.50;99.80
4874;DHT22;2451;49.970;9.068;2024-03-22T13:11:13;20.30;99.90
4874;DHT22;2451;49.970;9.068;2024-03-22T13:13:39;20.50;99.50
4874;DHT22;2451;49.970;9.068;2024-03-22T13:16:05;20.60;99.60
4874;DHT22;2451;49.970;9.068;2024-03-22T13:18:32;20.70;99.10
4874;DHT22;2451;49.970;9.068;2024-03-22T13:20:58;20.40;99.10
4874;DHT22;2451;49.970;9.068;2024-03-22T13:23:23;20.00;99.70
4874;DHT22;2451;49.970;9.068;2024-03-22T13:25:49;19.70;99.90
4874;DHT22;2451;49.970;9.068;2024-03-22T13:28:14;19.70;99.90
4874;DHT22;2451;49.970;9.068;2024-03-22T13:30:45;19.50;99.90
4874;DHT22;2451;49.970;9.068;2024-03-22T13:33:10;19.30;99.90
4874;DHT22;2451;49.970;9.068;2024-03-22T13:35:36;19.10;99.90
4874;DHT22;2451;49.970;9.068;2024-03-22T13:38:01;18.90;99.90
4874;DHT22;2451;49.970;9.068;2024-03-22T13:40:27;18.80;99.90
4874;DHT22;2451;49.970;9.068;2024-03-22T13:42:53;18.90;99.90
4874;DHT22;2451;49.970;9.068;2024-03-22T13:45:19;18.70;99.90
4874;DHT22;2451;49.970;9.068;2024-03-22T13:47:45;18.90;99.90
4874;DHT22;2451;49.970;9.068;2024-03-22T13:50:11;18.80;99.90
4874;DHT22;2451;49.970;9.068;2024-03-22T13:52:36;18.90;99.90
4874;DHT22;2451;49.970;9.068;2024-03-22T13:55:02;18.70;99.90
4874;DHT22;2451;49.970;9.068;2024-03-22T13:57:27;18.70;99.90
4874;DHT22;2451;49.970;9.068;2024-03-22T13:59:53;18.60;99.90
4874;DHT22;2451;49.970;9.068;2024-03-22T14:02:19;18.50;99.90
4874;DHT22;2451;49.970;9.068;2024-03-22T14:04:45;18.50;99.90
4874;DHT22;2451;49.970;9.068;2024-03-22T14:07:11;18.40;99.90
4874;DHT22;2451;49.970;9.068;2024-03-22T14:09:36;18.30;99.90
4874;DHT22;2451;49.970;9.068;2024-03-22T14:12:02;18.20;99.90
4874;DHT22;2451;49.970;9.068;2024-03-22T14:14:28;18.00;99.90
4874;DHT22;2451;49.970;9.068;2024-03-22T14:16:54;18.00;99.90
4874;DHT22;2451;49.970;9.068;2024-03-22T14:19:19;18.00;99.90
4874;DHT22;2451;49.970;9.068;2024-03-22T14:21:46;18.00;99.90
4874;DHT22;2451;49.970;9.068;2024-03-22T14:24:14;17.90;99.90
4874;DHT22;2451;49.970;9.068;2024-03-22T14:26:40;17.80;99.90
4874;DHT22;2451;49.970;9.068;2024-03-22T14:29:12;17.80;99.90
4874;DHT22;2451;49.970;9.068;2024-03-22T14:31:38;17.70;99.90
4874;DHT22;2451;49.970;9.068;2024-03-22T14:34:05;17.70;99.90
4874;DHT22;2451;49.970;9.068;2024-03-22T14:36:31;17.60;99.90
4874;DHT22;2451;49.970;9.068;2024-03-22T14:38:58;17.60;99.90
4874;DHT22;2451;49.970;9.068;2024-03-22T14:41:24;17.60;99.90
4874;DHT22;2451;49.970;9.068;2024-03-22T14:43:49;17.60;99.90
4874;DHT22;2451;49.970;9.068;2024-03-22T14:46:16;17.50;99.90
4874;DHT22;2451;49.970;9.068;2024-03-22T14:48:43;17.60;99.90
4874;DHT22;2451;49.970;9.068;2024-03-22T14:51:09;17.60;99.90
4874;DHT22;2451;49.970;9.068;2024-03-22T14:53:35;17.60;99.90
4874;DHT22;2451;49.970;9.068;2024-03-22T14:56:02;17.50;99.90
4874;DHT22;2451;49.970;9.068;2024-03-22T14:58:34;17.50;99.90
4874;DHT22;2451;49.970;9.068;2024-03-22T15:01:01;17.40;99.90
4874;DHT22;2451;49.970;9.068;2024-03-22T15:03:27;17.40;99.90
4874;DHT22;2451;49.970;9.068;2024-03-22T15:05:54;17.50;99.90
4874;DHT22;2451;49.970;9.068;2024-03-22T15:08:21;17.50;99.90
4874;DHT22;2451;49.970;9.068;2024-03-22T15:10:47;17.50;99.90
4874;DHT22;2451;49.970;9.068;2024-03-22T15:13:15;17.50;99.90
4874;DHT22;2451;49.970;9.068;2024-03-22T15:15:41;17.50;99.90
4874;DHT22;2451;49.970;9.068;2024-03-22T15:18:07;17.40;99.90
4874;DHT22;2451;49.970;9.068;2024-03-22T15:20:33;17.30;99.90
4874;DHT22;2451;49.970;9.068;2024-03-22T15:22:59;17.30;99.90
4874;DHT22;2451;49.970;9.068;2024-03-22T15:25:24;17.30;99.90
4874;DHT22;2451;49.970;9.068;2024-03-22T15:27:51;17.20;99.90
4874;DHT22;2451;49.970;9.068;2024-03-22T15:30:16;17.20;99.90
4874;DHT22;2451;49.970;9.068;2024-03-22T15:32:43;17.10;99.90
4874;DHT22;2451;49.970;9.068;2024-03-22T15:35:09;17.00;99.90
4874;DHT22;2451;49.970;9.068;2024-03-22T15:37:35;17.10;99.90
4874;DHT22;2451;49.970;9.068;2024-03-22T15:40:01;17.00;99.90
4874;DHT22;2451;49.970;9.068;2024-03-22T15:42:26;17.00;99.90
4874;DHT22;2451;49.970;9.068;2024-03-22T15:44:52;16.90;99.90
4874;DHT22;2451;49.970;9.068;2024-03-22T15:47:17;16.90;99.90
4874;DHT22;2451;49.970;9.068;2024-03-22T15:49:43;16.90;99.90
4874;DHT22;2451;49.970;9.068;2024-03-22T15:52:08;17.00;99.90
4874;DHT22;2451;49.970;9.068;2024-03-22T15:54:34;16.90;99.90
4874;DHT22;2451;49.970;9.068;2024-03-22T15:56:59;16.90;99.90
4874;DHT22;2451;49.970;9.068;2024-03-22T15:59:25;16.90;99.90
4874;DHT22;2451;49.970;9.068;2024-03-22T16:01:51;16.90;99.90